Portada
METAR-TAF:

METAR-TAF

Aeroports :

Elat, Israel

latitud: 29-43-25N, longitud: 35-00-41E, altitud: 88 m

Observació

L'informe es va fer fa 1 hora i 9 minuts, a les 13:50 UTC
Vent 7 kt del Nord/Nord-Est
Temperatura 42°C
Humitat 15%
Pressió 1002 hPa
Visibilitat 10 km o més
sense núvols per sota de 1500 mi sense presència de cumulonimbus.

METAR: LLER 161350Z 02007KT CAVOK 42/10 Q1002

Hora: 17:59 (14:59 UTC)

Pronòstic

L'informe es va fer fa 3 hores i 48 minuts, a les 11:11 UTC
Pronòstic vàlid del 16 a les 12 UTC al 17 a les 12 UTC
Vent 10 kt del Nord
Visibilitat 10 km o més
sense núvols per sota de 1500 mi sense presència de cumulonimbus.
Temporalment
l' 16 a les 12 UTC al 16 a les 17 UTC
Vent 15 kt del Nord/Nord-Oest

TAF: LLER 161111Z 1612/1712 36010KT CAVOK TEMPO 1612/1617 33015KT TX42/1613Z TN30/1703Z

Observacions i pronòstics meteorològics de més de 4000 aeroports (METAR i TAF).

Les estacions disponibles són els punts grocs i vermells al mapa.

Posi el ratolí al punt desitjat per veure el nom de l'estació.

Feu clic per veure les observacions i els pronòstics meteorològics.

Per canviar el mapa: feu clic els botons verds amb una creu de color negre per apropar; al botó verd amb un guió per allunyar la imatge; o en les fletxes verdes per a mapes adjacents.


METAR-TAF: